Time;durP1;ratioP1;P1;durP2;ratioP2;P2;SDS_P1;SDS_P2;PMS_P1;PMS_P2;Temp;Humidity;BMP_temperature;BMP_pressure;BME280_temperature;BME280_humidity;BME280_pressure;Samples;Min_cycle;Max_cycle;Signal;HPM_P1;HPM_P2
2023/01/04 00:01:04;;;;;;;6.90;1.92;;;8.40;99.90;;;;;;5110721;28;20047;-77
2023/01/04 00:03:30;;;;;;;6.68;1.42;;;8.50;99.90;;;;;;5110900;28;20020;-77
2023/01/04 00:06:02;;;;;;;5.20;1.60;;;8.50;99.90;;;;;;5110408;28;20026;-75
2023/01/04 00:08:28;;;;;;;12.35;2.10;;;8.50;99.90;;;;;;5110761;28;20139;-76
2023/01/04 00:11:16;;;;;;;6.32;1.50;;;8.40;99.90;;;;;;5109237;28;20034;-78
2023/01/04 00:13:42;;;;;;;6.45;2.05;;;8.40;99.90;;;;;;5109684;28;20031;-76
2023/01/04 00:16:13;;;;;;;5.45;1.75;;;8.40;99.90;;;;;;5109606;28;20125;-76
2023/01/04 00:18:39;;;;;;;7.38;1.52;;;8.40;99.90;;;;;;5109692;28;20044;-78
2023/01/04 00:21:07;;;;;;;6.13;1.83;;;8.40;99.90;;;;;;5111333;28;20024;-76
2023/01/04 00:23:32;;;;;;;6.30;1.52;;;8.40;99.90;;;;;;5110728;28;20125;-77
2023/01/04 00:25:58;;;;;;;8.73;1.90;;;8.30;99.90;;;;;;5110818;28;20040;-77
2023/01/04 00:28:24;;;;;;;4.72;1.42;;;8.40;99.90;;;;;;5109735;28;20042;-76
2023/01/04 00:30:49;;;;;;;6.55;1.35;;;8.30;99.90;;;;;;5109491;28;20469;-77
2023/01/04 00:33:15;;;;;;;3.35;1.65;;;8.30;99.90;;;;;;5111123;28;20039;-78
2023/01/04 00:35:41;;;;;;;4.53;1.65;;;8.30;99.90;;;;;;5109633;28;20048;-78
2023/01/04 00:38:06;;;;;;;9.10;1.73;;;8.20;99.90;;;;;;5110814;28;20036;-77
2023/01/04 00:40:33;;;;;;;5.75;1.77;;;8.30;99.90;;;;;;5109295;28;20051;-76
2023/01/04 00:42:58;;;;;;;7.57;1.75;;;8.30;99.90;;;;;;5110691;28;20036;-76
2023/01/04 00:45:24;;;;;;;4.35;1.58;;;8.20;99.90;;;;;;5109352;28;20016;-75
2023/01/04 00:47:50;;;;;;;8.40;1.60;;;8.20;99.90;;;;;;5111208;28;20077;-76
2023/01/04 00:50:15;;;;;;;4.93;1.55;;;8.30;99.90;;;;;;5110709;28;20035;-77
2023/01/04 00:52:41;;;;;;;9.55;1.60;;;8.30;99.90;;;;;;5109454;28;20051;-78
2023/01/04 00:55:07;;;;;;;3.40;1.55;;;8.20;99.90;;;;;;5110355;28;20457;-76
2023/01/04 00:57:33;;;;;;;5.13;1.60;;;8.20;99.90;;;;;;5110271;28;20210;-77
2023/01/04 00:59:58;;;;;;;3.20;1.17;;;8.20;99.90;;;;;;5109988;28;20020;-78
2023/01/04 01:02:24;;;;;;;4.88;1.58;;;8.20;99.90;;;;;;5112155;28;20088;-77
2023/01/04 01:04:50;;;;;;;7.95;1.48;;;8.20;99.90;;;;;;5114278;28;20149;-77
2023/01/04 01:07:15;;;;;;;14.65;2.13;;;8.20;99.90;;;;;;5113531;28;20122;-76
2023/01/04 01:09:41;;;;;;;7.43;1.98;;;8.20;99.90;;;;;;5112831;28;20051;-75
2023/01/04 01:12:06;;;;;;;5.55;1.67;;;8.20;99.90;;;;;;5113472;28;20031;-77
2023/01/04 01:14:32;;;;;;;5.35;1.65;;;8.20;99.90;;;;;;5112998;28;20035;-76
2023/01/04 01:16:58;;;;;;;6.57;1.63;;;8.20;99.90;;;;;;5113898;28;20043;-77
2023/01/04 01:19:27;;;;;;;10.45;3.88;;;8.20;99.90;;;;;;5114277;28;20485;-76
2023/01/04 01:21:52;;;;;;;31.35;14.80;;;8.20;99.90;;;;;;5114133;28;20115;-78
2023/01/04 01:24:19;;;;;;;4.57;1.92;;;8.20;99.90;;;;;;5114767;28;20135;-78
2023/01/04 01:26:45;;;;;;;7.57;1.77;;;8.20;99.90;;;;;;5114290;28;20016;-77
2023/01/04 01:29:11;;;;;;;3.30;1.48;;;8.20;99.90;;;;;;5114041;27;20042;-79
2023/01/04 01:31:36;;;;;;;4.53;1.70;;;8.40;99.90;;;;;;5113852;28;20501;-76
2023/01/04 01:34:02;;;;;;;6.15;1.55;;;8.20;99.90;;;;;;5112674;28;20373;-76
2023/01/04 01:36:28;;;;;;;6.55;1.50;;;8.20;99.90;;;;;;5112334;28;20076;-76
2023/01/04 01:38:54;;;;;;;7.43;1.50;;;8.30;99.90;;;;;;5113949;28;20095;-77
2023/01/04 01:41:24;;;;;;;4.00;1.60;;;8.10;99.90;;;;;;5113813;28;20043;-77
2023/01/04 01:43:59;;;;;;;4.55;1.42;;;8.10;99.90;;;;;;5112278;28;20088;-77
2023/01/04 01:46:38;;;;;;;8.77;1.60;;;8.10;99.90;;;;;;5112415;28;20038;-77
2023/01/04 01:49:17;;;;;;;3.97;1.67;;;8.10;99.90;;;;;;5113121;28;20335;-77
2023/01/04 01:51:43;;;;;;;3.92;1.20;;;8.10;99.90;;;;;;5115091;28;20107;-77
2023/01/04 01:54:19;;;;;;;6.38;1.73;;;8.20;99.90;;;;;;5115705;28;20020;-76
2023/01/04 01:56:48;;;;;;;6.63;1.58;;;8.20;99.90;;;;;;5118020;28;20050;-76
2023/01/04 01:59:15;;;;;;;4.90;1.38;;;8.20;99.90;;;;;;5124304;28;20035;-78
2023/01/04 02:01:41;;;;;;;5.68;1.65;;;8.20;99.90;;;;;;5126782;28;20088;-76
2023/01/04 02:04:08;;;;;;;6.63;1.80;;;8.20;99.90;;;;;;5124761;28;20036;-76
2023/01/04 02:06:40;;;;;;;6.03;1.70;;;8.20;99.90;;;;;;5115173;28;20027;-78
2023/01/04 02:09:07;;;;;;;5.30;1.48;;;8.40;99.90;;;;;;5114255;28;20032;-76
2023/01/04 02:11:33;;;;;;;5.95;1.60;;;8.30;99.90;;;;;;5114160;28;20453;-75
2023/01/04 02:14:33;;;;;;;9.73;1.67;;;8.30;99.90;;;;;;5112584;28;20469;-77
2023/01/04 02:16:55;;;;;;;8.48;1.38;;;8.30;99.90;;;;;;5109594;28;20040;-78
2023/01/04 02:19:37;;;;;;;7.47;1.50;;;8.50;99.90;;;;;;5112655;28;20035;-77
2023/01/04 02:22:22;;;;;;;10.65;2.35;;;8.30;99.90;;;;;;5112945;28;20484;-76
2023/01/04 02:24:53;;;;;;;7.75;1.50;;;8.40;99.90;;;;;;5112698;28;20031;-76
2023/01/04 02:27:21;;;;;;;5.32;1.48;;;8.40;99.90;;;;;;5112808;28;20030;-77
2023/01/04 02:29:50;;;;;;;8.95;1.20;;;8.40;99.90;;;;;;5112081;28;20036;-77
2023/01/04 02:32:45;;;;;;;5.75;1.20;;;8.40;99.90;;;;;;5111528;28;20027;-77
2023/01/04 02:35:28;;;;;;;6.60;1.52;;;8.40;99.90;;;;;;5109133;28;20104;-77
2023/01/04 02:38:34;;;;;;;9.32;1.63;;;8.40;99.90;;;;;;5092060;28;20430;-77
2023/01/04 02:41:39;;;;;;;4.28;1.50;;;8.50;99.90;;;;;;5068056;28;20472;-76
2023/01/04 02:47:11;;;;;;;3.47;1.25;;;8.50;99.90;;;;;;5091791;28;20038;-77
2023/01/04 02:52:23;;;;;;;2.75;1.02;;;8.60;99.90;;;;;;5091566;28;20073;-77
2023/01/04 02:54:52;;;;;;;5.38;1.60;;;8.70;99.90;;;;;;5091743;28;20032;-76
2023/01/04 02:57:29;;;;;;;3.38;1.38;;;8.60;99.90;;;;;;5090164;28;20028;-77
2023/01/04 03:00:21;;;;;;;22.08;9.40;;;8.60;99.90;;;;;;5092634;28;20008;-76
2023/01/04 03:06:15;;;;;;;4.75;1.30;;;8.70;99.90;;;;;;5091688;28;20035;-77
2023/01/04 03:08:53;;;;;;;7.55;1.60;;;8.70;99.90;;;;;;5091832;28;20311;-78
2023/01/04 03:14:10;;;;;;;4.25;1.40;;;8.70;99.90;;;;;;5091900;28;20069;-76
2023/01/04 03:16:38;;;;;;;5.20;1.15;;;8.70;99.90;;;;;;5091546;28;20135;-76
2023/01/04 03:19:08;;;;;;;3.72;1.27;;;8.90;99.90;;;;;;5091443;28;20048;-76
2023/01/04 03:21:36;;;;;;;6.97;1.48;;;8.70;99.90;;;;;;5090173;28;20379;-76
2023/01/04 03:35:49;;;;;;;5.07;1.23;;;8.90;99.90;;;;;;5091062;28;20089;-77
2023/01/04 03:50:25;;;;;;;5.38;1.60;;;9.00;99.90;;;;;;5090933;28;20124;-78
2023/01/04 03:52:54;;;;;;;5.40;1.73;;;9.10;99.90;;;;;;5090836;28;20036;-77
2023/01/04 03:55:21;;;;;;;6.20;1.42;;;9.10;99.90;;;;;;5091070;28;20028;-77
2023/01/04 03:57:47;;;;;;;6.20;1.80;;;9.10;99.90;;;;;;5089746;28;20032;-79
2023/01/04 04:00:17;;;;;;;5.45;1.70;;;9.20;99.90;;;;;;5090519;28;20480;-77
2023/01/04 04:02:46;;;;;;;28.98;13.18;;;9.10;99.90;;;;;;5090738;28;20486;-76
2023/01/04 04:10:52;;;;;;;5.30;1.75;;;9.10;99.90;;;;;;5090322;28;20108;-77
2023/01/04 04:13:18;;;;;;;12.63;1.70;;;9.10;99.90;;;;;;5090438;28;20036;-78
2023/01/04 04:15:44;;;;;;;4.13;1.60;;;9.10;99.90;;;;;;5090105;28;20197;-78
2023/01/04 04:18:09;;;;;;;4.28;1.40;;;9.10;99.90;;;;;;5089986;28;20546;-77
2023/01/04 04:20:35;;;;;;;9.88;1.40;;;9.10;99.90;;;;;;5090436;28;20036;-77
2023/01/04 04:23:01;;;;;;;5.07;1.55;;;9.10;99.90;;;;;;5090232;28;20063;-78
2023/01/04 04:25:27;;;;;;;6.97;1.90;;;9.10;99.90;;;;;;5090519;28;20028;-78
2023/01/04 04:27:52;;;;;;;9.25;1.77;;;9.20;99.90;;;;;;5090169;28;20247;-80
2023/01/04 04:30:18;;;;;;;6.90;1.80;;;9.20;99.90;;;;;;5090466;28;20016;-79
2023/01/04 04:32:44;;;;;;;6.90;1.50;;;9.20;99.90;;;;;;5090652;28;20446;-79
2023/01/04 04:35:10;;;;;;;7.60;2.13;;;9.20;99.90;;;;;;5089253;28;20028;-77
2023/01/04 04:37:36;;;;;;;4.13;1.70;;;9.20;99.90;;;;;;5092791;28;20221;-77
2023/01/04 04:40:03;;;;;;;5.57;1.60;;;9.20;99.90;;;;;;5094534;28;20028;-77
2023/01/04 04:42:28;;;;;;;3.33;1.42;;;9.20;99.90;;;;;;5093912;28;20020;-77
2023/01/04 04:44:54;;;;;;;10.02;2.13;;;9.20;99.90;;;;;;5095082;28;20085;-77
2023/01/04 04:47:20;;;;;;;6.43;1.50;;;9.30;99.90;;;;;;5094169;28;20126;-76
2023/01/04 04:49:45;;;;;;;5.22;1.23;;;9.20;99.90;;;;;;5094225;28;20028;-75
2023/01/04 04:52:11;;;;;;;8.88;2.15;;;9.20;99.90;;;;;;5094314;28;20066;-77
2023/01/04 04:54:37;;;;;;;6.68;1.50;;;9.20;99.90;;;;;;5094179;28;20049;-76
2023/01/04 04:57:02;;;;;;;6.80;1.77;;;9.30;99.90;;;;;;5093699;28;20462;-76
2023/01/04 04:59:28;;;;;;;6.07;1.88;;;9.30;99.90;;;;;;5094070;28;20477;-77
2023/01/04 05:01:54;;;;;;;6.88;2.25;;;9.30;99.90;;;;;;5094219;28;20120;-76
2023/01/04 05:04:19;;;;;;;5.45;1.50;;;9.30;99.90;;;;;;5092645;28;20036;-76
2023/01/04 05:06:47;;;;;;;5.78;1.85;;;9.40;99.90;;;;;;5094122;28;20605;-76
2023/01/04 05:09:14;;;;;;;4.03;1.55;;;9.40;99.90;;;;;;5094193;28;20024;-76
2023/01/04 05:14:24;;;;;;;6.15;1.50;;;9.40;99.90;;;;;;5093848;28;20090;-76
2023/01/04 05:16:50;;;;;;;6.90;1.77;;;9.50;99.90;;;;;;5093422;28;20044;-76
2023/01/04 05:19:16;;;;;;;5.53;1.42;;;9.50;99.90;;;;;;5093616;28;20047;-76
2023/01/04 05:21:42;;;;;;;3.15;1.67;;;9.40;99.90;;;;;;5093180;28;20358;-77
2023/01/04 05:24:10;;;;;;;5.88;1.58;;;9.40;99.90;;;;;;5093901;28;20495;-75
2023/01/04 05:26:36;;;;;;;5.03;1.92;;;9.40;99.90;;;;;;5092471;28;20061;-75
2023/01/04 05:29:02;;;;;;;3.88;1.55;;;9.50;99.90;;;;;;5093503;28;20032;-76
2023/01/04 05:31:27;;;;;;;3.88;1.45;;;9.50;99.90;;;;;;5093131;28;20457;-77
2023/01/04 05:33:53;;;;;;;2.40;1.60;;;9.60;99.90;;;;;;5093325;28;20462;-77
2023/01/04 05:36:18;;;;;;;5.32;2.20;;;9.60;99.90;;;;;;5093520;28;20442;-77
2023/01/04 05:38:44;;;;;;;4.75;1.42;;;9.50;99.90;;;;;;5092978;28;20024;-76
2023/01/04 05:43:54;;;;;;;5.95;1.80;;;9.50;99.90;;;;;;5093377;28;20050;-75
2023/01/04 05:46:20;;;;;;;2.45;1.25;;;9.50;99.90;;;;;;5093976;28;20426;-76
2023/01/04 05:48:45;;;;;;;5.43;1.52;;;9.50;99.90;;;;;;5091535;28;20040;-78
2023/01/04 05:51:11;;;;;;;4.00;1.88;;;9.50;99.90;;;;;;5093587;28;20081;-76
2023/01/04 05:53:38;;;;;;;3.83;1.70;;;9.50;99.90;;;;;;5093229;28;20516;-77
2023/01/04 05:56:04;;;;;;;5.80;1.70;;;9.50;99.90;;;;;;5092955;28;20042;-77
2023/01/04 05:58:30;;;;;;;6.85;1.45;;;9.50;99.90;;;;;;5093146;28;20036;-78
2023/01/04 06:00:55;;;;;;;7.15;1.80;;;9.60;99.90;;;;;;5092862;28;20036;-77
2023/01/04 06:03:21;;;;;;;5.18;1.35;;;9.60;99.90;;;;;;5093118;28;20503;-75
2023/01/04 06:05:51;;;;;;;6.38;1.92;;;9.50;99.90;;;;;;5091957;28;20059;-76
2023/01/04 06:08:17;;;;;;;3.25;1.40;;;9.50;99.90;;;;;;5092704;28;20370;-77
2023/01/04 06:10:43;;;;;;;2.70;1.60;;;9.60;99.90;;;;;;5091552;28;20040;-78
2023/01/04 06:13:08;;;;;;;8.27;1.48;;;9.60;99.90;;;;;;5092718;28;20032;-77
2023/01/04 06:15:34;;;;;;;5.63;1.55;;;9.60;99.90;;;;;;5092176;28;20055;-76
2023/01/04 06:18:00;;;;;;;1.77;1.10;;;9.60;99.90;;;;;;5091941;28;20134;-76
2023/01/04 06:20:25;;;;;;;5.32;1.58;;;9.60;99.90;;;;;;5092361;28;20139;-77
2023/01/04 06:22:51;;;;;;;2.80;1.05;;;9.70;99.90;;;;;;5092403;28;20047;-76
2023/01/04 06:25:17;;;;;;;2.97;1.10;;;9.60;99.90;;;;;;5092556;28;20035;-78
2023/01/04 06:27:42;;;;;;;3.25;1.50;;;9.60;99.90;;;;;;5092447;28;20028;-76
2023/01/04 06:30:09;;;;;;;2.88;1.65;;;9.60;99.90;;;;;;5093368;28;20430;-76
2023/01/04 06:32:35;;;;;;;3.47;1.38;;;9.70;99.90;;;;;;5092402;28;20036;-77
2023/01/04 06:35:00;;;;;;;7.40;2.88;;;9.70;99.90;;;;;;5092303;28;20029;-78
2023/01/04 06:37:27;;;;;;;2.50;1.27;;;9.70;99.90;;;;;;5091041;28;20477;-78
2023/01/04 06:39:52;;;;;;;6.25;1.58;;;9.70;99.90;;;;;;5092067;28;20450;-76
2023/01/04 06:45:03;;;;;;;2.17;1.30;;;9.70;99.90;;;;;;5092747;28;20350;-76
2023/01/04 06:47:29;;;;;;;3.35;1.58;;;9.70;99.90;;;;;;5091890;28;20132;-75
2023/01/04 06:49:54;;;;;;;5.10;1.70;;;9.60;99.90;;;;;;5090732;28;20480;-76
2023/01/04 06:52:20;;;;;;;3.00;1.25;;;9.60;99.90;;;;;;5090702;28;20114;-78
2023/01/04 06:54:46;;;;;;;2.83;1.50;;;9.70;99.90;;;;;;5091915;28;20093;-77
2023/01/04 06:57:11;;;;;;;3.05;1.60;;;9.70;99.90;;;;;;5092457;28;20016;-78
2023/01/04 06:59:37;;;;;;;1.83;1.30;;;9.50;99.90;;;;;;5091052;28;20178;-76
2023/01/04 07:02:03;;;;;;;2.90;1.38;;;9.70;99.90;;;;;;5091679;28;20024;-76
2023/01/04 07:04:29;;;;;;;2.50;1.30;;;9.60;99.90;;;;;;5091574;28;20044;-77
2023/01/04 07:06:54;;;;;;;2.30;1.52;;;9.70;99.90;;;;;;5091427;28;20043;-76
2023/01/04 07:09:20;;;;;;;5.22;1.77;;;9.70;99.90;;;;;;5090351;28;20055;-75
2023/01/04 07:11:45;;;;;;;2.33;1.38;;;9.80;99.90;;;;;;5091909;28;20107;-76
2023/01/04 07:14:11;;;;;;;2.70;1.30;;;9.60;99.90;;;;;;5091322;28;20454;-76
2023/01/04 07:16:37;;;;;;;2.03;1.33;;;9.80;99.90;;;;;;5091163;28;20517;-77
2023/01/04 07:19:02;;;;;;;3.13;1.38;;;9.70;99.90;;;;;;5091270;28;20139;-77
2023/01/04 07:21:28;;;;;;;4.13;1.30;;;9.70;99.90;;;;;;5092715;28;20028;-78
2023/01/04 07:23:54;;;;;;;2.15;1.38;;;9.70;99.90;;;;;;5098397;28;20025;-77
2023/01/04 07:26:20;;;;;;;3.47;1.75;;;9.70;99.90;;;;;;5097410;28;20582;-76
2023/01/04 07:31:30;;;;;;;3.63;1.67;;;9.80;99.90;;;;;;5092103;28;20051;-76
2023/01/04 07:33:55;;;;;;;4.80;2.83;;;9.80;99.90;;;;;;5090346;28;20434;-78
2023/01/04 07:36:21;;;;;;;3.58;1.10;;;9.80;99.90;;;;;;5090270;28;20035;-76
2023/01/04 07:38:47;;;;;;;1.55;1.05;;;9.80;99.90;;;;;;5091403;28;20077;-78
2023/01/04 07:41:12;;;;;;;3.72;2.38;;;9.90;99.90;;;;;;5090911;28;20111;-76
2023/01/04 07:43:38;;;;;;;3.72;1.55;;;10.00;99.90;;;;;;5089895;28;20088;-78
2023/01/04 07:46:04;;;;;;;2.30;1.23;;;10.00;99.90;;;;;;5090891;28;20035;-77
2023/01/04 07:48:29;;;;;;;1.35;1.02;;;10.00;99.90;;;;;;5090730;28;20059;-77
2023/01/04 07:50:55;;;;;;;2.65;1.05;;;10.00;99.90;;;;;;5091022;28;20057;-77
2023/01/04 07:53:21;;;;;;;3.80;1.33;;;10.00;99.90;;;;;;5090598;28;20067;-76
2023/01/04 07:55:46;;;;;;;2.00;0.93;;;10.00;99.90;;;;;;5089504;28;20043;-77
2023/01/04 07:58:12;;;;;;;2.85;0.95;;;10.10;99.90;;;;;;5089366;28;20134;-78
2023/01/04 08:00:37;;;;;;;2.08;1.20;;;10.10;99.90;;;;;;5090825;28;20028;-76
2023/01/04 08:03:03;;;;;;;1.80;1.02;;;10.10;99.90;;;;;;5090917;28;20024;-77
2023/01/04 08:05:33;;;;;;;5.47;1.20;;;10.10;99.90;;;;;;5090475;28;20031;-75
2023/01/04 08:07:59;;;;;;;6.70;1.05;;;10.10;99.90;;;;;;5090528;28;20481;-77
2023/01/04 08:10:25;;;;;;;3.22;1.40;;;10.20;99.90;;;;;;5090204;28;20454;-77
2023/01/04 08:12:51;;;;;;;1.58;1.17;;;10.30;99.90;;;;;;5090361;28;20050;-77
2023/01/04 08:15:16;;;;;;;1.90;1.15;;;10.30;99.90;;;;;;5090579;28;20048;-76
2023/01/04 08:17:42;;;;;;;5.55;1.65;;;10.20;99.90;;;;;;5090526;28;20055;-78
2023/01/04 08:20:08;;;;;;;3.42;1.35;;;10.20;99.90;;;;;;5090236;28;20028;-77
2023/01/04 08:22:33;;;;;;;6.20;1.98;;;10.20;99.90;;;;;;5090122;28;20369;-78
2023/01/04 08:24:59;;;;;;;5.22;1.77;;;10.30;99.90;;;;;;5090044;28;20032;-76
2023/01/04 08:27:25;;;;;;;4.55;1.73;;;10.20;99.90;;;;;;5089216;28;20087;-78
2023/01/04 08:29:51;;;;;;;2.88;1.67;;;10.20;99.90;;;;;;5090859;28;20026;-78
2023/01/04 08:32:16;;;;;;;1.52;1.25;;;10.20;99.90;;;;;;5089214;28;20047;-77
2023/01/04 08:34:42;;;;;;;2.63;1.42;;;10.40;99.90;;;;;;5089737;28;20055;-77
2023/01/04 08:37:07;;;;;;;1.63;1.23;;;10.30;99.90;;;;;;5089164;28;20468;-77
2023/01/04 08:39:34;;;;;;;2.70;1.20;;;10.40;99.90;;;;;;5089088;28;20031;-77
2023/01/04 08:42:01;;;;;;;3.63;1.60;;;10.40;99.90;;;;;;5089660;28;20080;-77
2023/01/04 08:44:27;;;;;;;2.35;1.10;;;10.50;99.90;;;;;;5089330;28;20036;-78
2023/01/04 08:46:54;;;;;;;3.92;1.65;;;10.40;99.90;;;;;;5090175;28;20024;-78
2023/01/04 08:49:20;;;;;;;3.28;1.60;;;10.40;99.90;;;;;;5089108;28;20028;-77
2023/01/04 08:51:47;;;;;;;2.22;1.50;;;10.40;99.90;;;;;;5090236;28;20042;-76
2023/01/04 08:54:13;;;;;;;6.30;1.10;;;10.40;99.90;;;;;;5090657;28;20016;-76
2023/01/04 08:56:39;;;;;;;3.72;1.10;;;10.50;99.90;;;;;;5090012;28;20679;-78
2023/01/04 08:59:06;;;;;;;3.80;1.00;;;10.50;99.90;;;;;;5089980;28;20029;-78
2023/01/04 09:01:32;;;;;;;2.20;1.00;;;10.50;99.90;;;;;;5088974;28;20059;-76
2023/01/04 09:03:58;;;;;;;1.13;1.05;;;10.40;99.90;;;;;;5090176;28;20063;-76
2023/01/04 09:06:24;;;;;;;3.08;1.38;;;10.40;99.90;;;;;;5090031;28;20063;-75
2023/01/04 09:08:49;;;;;;;2.58;1.20;;;10.40;99.90;;;;;;5089446;28;20066;-78
2023/01/04 09:11:18;;;;;;;4.05;1.20;;;10.40;99.90;;;;;;5089956;28;20116;-78
2023/01/04 09:13:45;;;;;;;2.60;1.40;;;10.40;99.90;;;;;;5089826;28;20028;-77
2023/01/04 09:16:13;;;;;;;3.78;1.40;;;10.40;99.90;;;;;;5089655;28;20042;-76
2023/01/04 09:18:39;;;;;;;5.00;1.15;;;10.50;99.90;;;;;;5088646;28;20335;-80
2023/01/04 09:21:06;;;;;;;3.25;1.17;;;10.50;99.90;;;;;;5090135;28;20130;-77
2023/01/04 09:23:33;;;;;;;2.00;1.23;;;10.50;99.90;;;;;;5090565;28;20028;-77
2023/01/04 09:26:03;;;;;;;2.78;0.98;;;10.50;99.90;;;;;;5093458;28;20035;-77
2023/01/04 09:28:29;;;;;;;1.30;0.77;;;10.50;99.90;;;;;;5093474;28;20534;-76
2023/01/04 09:30:54;;;;;;;1.58;0.85;;;10.50;99.90;;;;;;5093467;28;20369;-76
2023/01/04 09:33:20;;;;;;;1.08;0.60;;;10.50;99.90;;;;;;5093259;28;20080;-75
2023/01/04 09:35:46;;;;;;;1.98;0.85;;;10.50;99.90;;;;;;5093720;28;20024;-75
2023/01/04 09:38:11;;;;;;;1.77;0.88;;;10.60;99.90;;;;;;5093104;28;20473;-78
2023/01/04 09:40:52;;;;;;;3.22;0.60;;;10.60;99.90;;;;;;5092109;28;20470;-76
2023/01/04 09:43:21;;;;;;;1.67;1.02;;;10.60;99.90;;;;;;5093251;28;20101;-76
2023/01/04 09:45:51;;;;;;;1.90;0.57;;;10.60;99.90;;;;;;5093249;28;20150;-76
2023/01/04 09:48:23;;;;;;;1.30;0.68;;;10.70;99.90;;;;;;5093857;28;20085;-77
2023/01/04 09:51:01;;;;;;;0.40;0.40;;;10.70;99.90;;;;;;5093262;28;20032;-76
2023/01/04 09:53:52;;;;;;;0.88;0.60;;;10.70;99.90;;;;;;5093215;28;20479;-79
2023/01/04 09:56:31;;;;;;;4.10;0.70;;;10.80;99.90;;;;;;5092973;28;20535;-77
2023/01/04 09:59:00;;;;;;;2.13;0.88;;;10.70;99.90;;;;;;5091611;28;20484;-78
2023/01/04 10:01:43;;;;;;;1.40;0.80;;;10.80;99.90;;;;;;5091776;28;20044;-77
2023/01/04 10:04:39;;;;;;;1.65;0.82;;;10.80;99.90;;;;;;5092813;28;20061;-77
2023/01/04 10:07:13;;;;;;;1.23;0.63;;;10.80;99.90;;;;;;5092701;28;20071;-77
2023/01/04 10:09:38;;;;;;;4.82;0.90;;;10.80;99.90;;;;;;5092603;28;20066;-77
2023/01/04 10:12:45;;;;;;;0.68;0.52;;;10.90;99.90;;;;;;5092976;28;20052;-77
2023/01/04 10:15:51;;;;;;;5.05;0.90;;;10.90;99.90;;;;;;5075466;28;20094;-78
2023/01/04 10:18:29;;;;;;;1.58;0.45;;;11.00;99.90;;;;;;5030058;28;20545;-77
2023/01/04 10:21:03;;;;;;;1.17;0.50;;;11.10;99.90;;;;;;5085367;28;20532;-76
2023/01/04 10:23:55;;;;;;;1.85;0.40;;;11.20;99.90;;;;;;5092343;28;20484;-77
2023/01/04 10:26:32;;;;;;;0.70;0.40;;;11.20;99.90;;;;;;5092552;28;20028;-76
2023/01/04 10:29:10;;;;;;;0.65;0.40;;;11.30;99.90;;;;;;5092283;28;20031;-77
2023/01/04 10:31:51;;;;;;;1.58;0.32;;;11.40;99.90;;;;;;5091105;28;20028;-77
2023/01/04 10:34:28;;;;;;;0.68;0.30;;;11.40;99.90;;;;;;5092297;28;20127;-76
2023/01/04 10:37:09;;;;;;;2.15;0.50;;;11.50;99.90;;;;;;5091241;28;20270;-76
2023/01/04 10:39:35;;;;;;;3.22;0.30;;;11.50;99.90;;;;;;5092043;28;20028;-77
2023/01/04 10:42:33;;;;;;;0.43;0.30;;;11.50;99.90;;;;;;5092527;28;20101;-75
2023/01/04 10:45:19;;;;;;;1.63;0.45;;;11.50;99.90;;;;;;5083604;28;20064;-75
2023/01/04 10:47:51;;;;;;;0.98;0.43;;;11.50;99.90;;;;;;5091304;28;20040;-78
2023/01/04 10:50:43;;;;;;;1.92;0.50;;;11.60;99.90;;;;;;5091893;28;20066;-78
2023/01/04 10:53:19;;;;;;;0.95;0.60;;;11.60;99.90;;;;;;5092045;28;20025;-77
2023/01/04 10:55:52;;;;;;;0.77;0.47;;;11.60;99.90;;;;;;5091836;28;20112;-78
2023/01/04 10:58:36;;;;;;;2.75;0.30;;;11.50;99.90;;;;;;5091827;28;20028;-76
2023/01/04 11:01:24;;;;;;;0.30;0.15;;;11.60;99.90;;;;;;5091799;28;20159;-77
2023/01/04 11:03:56;;;;;;;0.75;0.20;;;11.60;99.90;;;;;;5091595;28;20070;-77
2023/01/04 11:06:26;;;;;;;0.98;0.30;;;11.60;99.90;;;;;;5090577;28;20032;-76
2023/01/04 11:09:00;;;;;;;0.80;0.40;;;11.60;99.90;;;;;;5092008;28;20153;-76
2023/01/04 11:11:32;;;;;;;0.45;0.25;;;11.60;99.90;;;;;;5091497;28;20119;-77
2023/01/04 11:13:59;;;;;;;1.85;0.40;;;11.60;99.90;;;;;;5090615;28;20081;-77
2023/01/04 11:16:26;;;;;;;1.63;0.50;;;11.60;99.90;;;;;;5090286;28;20036;-78
2023/01/04 11:18:52;;;;;;;1.30;0.60;;;11.70;99.90;;;;;;5091524;28;20028;-79
2023/01/04 11:21:24;;;;;;;1.27;0.50;;;11.80;99.90;;;;;;5091361;28;20062;-77
2023/01/04 11:23:50;;;;;;;0.52;0.45;;;11.70;99.90;;;;;;5090638;28;20028;-77
2023/01/04 11:26:21;;;;;;;2.00;0.60;;;11.70;99.90;;;;;;5090416;28;20039;-75
2023/01/04 11:28:46;;;;;;;0.85;0.40;;;11.60;99.90;;;;;;5091229;28;20081;-78
2023/01/04 11:31:30;;;;;;;0.65;0.40;;;11.70;99.90;;;;;;5090125;28;20115;-77
2023/01/04 11:34:01;;;;;;;1.48;0.50;;;11.70;99.90;;;;;;5090036;28;20501;-77
2023/01/04 11:36:30;;;;;;;0.88;0.38;;;11.70;99.90;;;;;;5091210;28;20323;-75
2023/01/04 11:38:55;;;;;;;0.88;0.40;;;11.70;99.90;;;;;;5091422;28;20054;-78
2023/01/04 11:41:21;;;;;;;1.58;0.50;;;11.70;99.90;;;;;;5089858;28;20062;-75
2023/01/04 11:44:04;;;;;;;1.67;0.30;;;11.70;99.90;;;;;;5090897;28;20032;-78
2023/01/04 11:46:32;;;;;;;0.82;0.35;;;11.70;99.90;;;;;;5090619;28;20422;-77
2023/01/04 11:48:57;;;;;;;0.43;0.30;;;11.70;99.90;;;;;;5090981;28;20036;-75
2023/01/04 11:51:26;;;;;;;1.08;0.45;;;11.70;99.90;;;;;;5090013;28;20395;-75
2023/01/04 11:53:57;;;;;;;0.93;0.30;;;11.70;99.90;;;;;;5091290;28;20067;-75
2023/01/04 11:56:26;;;;;;;1.10;0.57;;;11.80;99.90;;;;;;5089767;28;20400;-76
2023/01/04 11:59:07;;;;;;;1.40;0.40;;;11.70;99.90;;;;;;5091153;28;20040;-76
2023/01/04 12:01:35;;;;;;;0.55;0.30;;;11.70;99.90;;;;;;5090705;28;20093;-77
2023/01/04 12:04:02;;;;;;;0.30;0.20;;;11.80;99.90;;;;;;5090729;28;20096;-76
2023/01/04 12:06:37;;;;;;;1.45;0.50;;;11.80;99.90;;;;;;5090696;28;20020;-77
2023/01/04 12:09:03;;;;;;;0.82;0.28;;;11.80;99.90;;;;;;5091497;28;20424;-75
2023/01/04 12:11:38;;;;;;;0.77;0.40;;;11.80;99.90;;;;;;5090141;28;20184;-75
2023/01/04 12:14:18;;;;;;;0.73;0.13;;;11.80;99.90;;;;;;5089681;28;20107;-76
2023/01/04 12:17:12;;;;;;;0.05;0.00;;;11.80;99.90;;;;;;5090400;28;20036;-76
2023/01/04 12:19:43;;;;;;;0.80;0.30;;;11.80;99.90;;;;;;5089524;28;20361;-80
2023/01/04 12:22:30;;;;;;;1.98;1.05;;;11.90;99.90;;;;;;5090470;28;20040;-75
2023/01/04 12:24:57;;;;;;;0.20;0.20;;;11.90;99.90;;;;;;5088999;28;20047;-76
2023/01/04 12:27:23;;;;;;;0.90;0.20;;;11.90;99.90;;;;;;5090489;28;20023;-77
2023/01/04 12:30:01;;;;;;;4.45;1.35;;;11.90;99.90;;;;;;5090233;28;20119;-78
2023/01/04 12:32:26;;;;;;;7.20;0.77;;;11.90;99.90;;;;;;5090493;28;20055;-79
2023/01/04 12:34:53;;;;;;;0.73;0.47;;;11.90;99.90;;;;;;5090548;28;20059;-76
2023/01/04 12:37:50;;;;;;;1.10;0.30;;;11.90;99.90;;;;;;5089483;28;20048;-76
2023/01/04 12:40:43;;;;;;;0.73;0.30;;;11.90;99.90;;;;;;5085409;28;20039;-77
2023/01/04 12:43:15;;;;;;;0.73;0.22;;;12.00;99.90;;;;;;5090561;28;20136;-78
2023/01/04 12:45:42;;;;;;;0.52;0.30;;;12.00;99.90;;;;;;5089530;28;20033;-77
2023/01/04 12:51:24;;;;;;;0.70;0.50;;;12.00;99.90;;;;;;5086158;28;20511;-78
2023/01/04 12:53:58;;;;;;;2.67;1.17;;;12.00;99.90;;;;;;5091454;28;20020;-76
2023/01/04 12:57:02;;;;;;;1.15;0.70;;;12.10;99.90;;;;;;5090556;28;20084;-77
2023/01/04 12:59:51;;;;;;;3.45;0.70;;;12.10;99.90;;;;;;5092402;28;20043;-76
2023/01/04 13:02:23;;;;;;;2.70;0.75;;;12.10;99.90;;;;;;5094098;28;20043;-76
2023/01/04 13:04:51;;;;;;;0.45;0.40;;;12.10;99.90;;;;;;5093962;28;20051;-77
2023/01/04 13:07:29;;;;;;;2.70;0.50;;;12.10;99.90;;;;;;5094337;28;20457;-77
2023/01/04 13:10:00;;;;;;;0.43;0.40;;;12.10;99.90;;;;;;5094068;28;20139;-77
2023/01/04 13:12:32;;;;;;;0.50;0.45;;;12.10;99.90;;;;;;5094093;28;20059;-77
2023/01/04 13:15:04;;;;;;;0.20;0.20;;;12.10;99.90;;;;;;5092873;28;20404;-76
2023/01/04 13:17:37;;;;;;;0.60;0.55;;;12.10;99.90;;;;;;5094001;28;20036;-75
2023/01/04 13:20:14;;;;;;;0.43;0.40;;;12.10;99.90;;;;;;5092604;28;20066;-75
2023/01/04 13:22:55;;;;;;;0.22;0.17;;;12.10;99.90;;;;;;5093859;28;20032;-77
2023/01/04 13:25:23;;;;;;;0.45;0.25;;;12.10;99.90;;;;;;5092423;28;20119;-76
2023/01/04 13:27:55;;;;;;;;;;;12.10;99.90;;;;;;5094008;28;20039;-75
2023/01/04 13:30:32;;;;;;;0.70;0.47;;;12.10;99.90;;;;;;5109393;28;19904;-76
2023/01/04 13:33:06;;;;;;;0.70;0.40;;;12.10;99.90;;;;;;5093182;28;20388;-77
2023/01/04 13:35:31;;;;;;;0.82;0.45;;;12.20;99.90;;;;;;5093776;28;20036;-78
2023/01/04 13:37:59;;;;;;;1.23;0.40;;;12.30;99.90;;;;;;5093300;28;20050;-76
2023/01/04 13:40:34;;;;;;;1.63;0.70;;;12.20;99.90;;;;;;5093157;28;20043;-77
2023/01/04 13:43:36;;;;;;;1.67;0.65;;;12.20;99.90;;;;;;5093080;28;20035;-78
2023/01/04 13:46:21;;;;;;;1.58;0.60;;;12.20;99.90;;;;;;5093427;28;20043;-75
2023/01/04 13:48:50;;;;;;;0.40;0.40;;;12.30;99.90;;;;;;5091917;28;20032;-78
2023/01/04 13:51:23;;;;;;;1.10;0.77;;;12.30;99.90;;;;;;5092694;28;20107;-76
2023/01/04 13:53:56;;;;;;;0.80;0.60;;;12.30;99.90;;;;;;5093058;28;20044;-77
2023/01/04 13:56:31;;;;;;;3.00;0.80;;;12.30;99.90;;;;;;5092836;28;20032;-77
2023/01/04 13:58:57;;;;;;;0.68;0.52;;;12.30;99.90;;;;;;5091922;28;20124;-76
2023/01/04 14:01:36;;;;;;;0.65;0.50;;;12.30;99.90;;;;;;5091803;28;20032;-75
2023/01/04 14:04:05;;;;;;;2.58;1.23;;;12.30;99.90;;;;;;5092750;28;20032;-79